| time (UTC) | temp F | wind direction | speed MPH | gust MPH | rain 1hr in | rain 24hr in | rain mn in | humidity % | barometer mb |
| 20260506153017 | 59 | 200 | 1.0 | 6.0 | 0.00 | 0.00 | 0.00 | 76 | 1009.4 |
| 20260506151529 | 60 | 76 | 1.0 | 5.0 | 0.00 | 0.00 | 0.00 | 75 | 1009.8 |
| 20260506150015 | 60 | 134 | 0.0 | 3.0 | 0.00 | 0.00 | 0.00 | 74 | 1009.7 |
| 20260506144513 | 59 | 164 | 2.0 | 7.0 | 0.00 | 0.00 | 0.00 | 76 | 1009.8 |
| 20260506143015 | 58 | 198 | 3.0 | 10.0 | 0.00 | 0.00 | 0.00 | 78 | 1009.7 |
| 20260506141512 | 59 | 133 | 4.0 | 11.0 | 0.00 | 0.00 | 0.00 | 76 | 1009.6 |
| 20260506140015 | 60 | 167 | 3.0 | 7.0 | 0.00 | 0.00 | 0.00 | 75 | 1009.7 |
| 20260506134509 | 60 | 174 | 3.0 | 10.0 | 0.00 | 0.00 | 0.00 | 75 | 1009.8 |
| 20260506133009 | 59 | 188 | 2.0 | 9.0 | 0.00 | 0.00 | 0.00 | 77 | 1010.0 |
| 20260506131515 | 59 | 122 | 3.0 | 9.0 | 0.00 | 0.00 | 0.00 | 77 | 1009.9 |
| 20260506130009 | 59 | 192 | 2.0 | 9.0 | 0.00 | 0.00 | 0.00 | 77 | 1009.8 |
| 20260506124507 | 60 | 136 | 4.0 | 9.0 | 0.00 | 0.00 | 0.00 | 75 | 1009.8 |
| 20260506123006 | 61 | 176 | 2.0 | 8.0 | 0.00 | 0.00 | 0.00 | 75 | 1009.9 |
| 20260506121506 | 63 | 150 | 1.0 | 7.0 | 0.00 | 0.00 | 0.00 | 74 | 1009.9 |
| 20260506120005 | 63 | 127 | 1.0 | 12.0 | 0.00 | 0.00 | 0.00 | 75 | 1010.1 |
| 20260506114604 | 61 | 241 | 2.0 | 7.0 | 0.00 | 0.00 | 0.00 | 78 | 1010.2 |
| 20260506113101 | 60 | 199 | 1.0 | 7.0 | 0.00 | 0.00 | 0.00 | 79 | 1010.1 |
| 20260506111604 | 60 | 213 | 1.0 | 6.0 | 0.00 | 0.00 | 0.00 | 81 | 1010.1 |
| 20260506110051 | 58 | 177 | 0.0 | 4.0 | 0.00 | 0.00 | 0.00 | 83 | 1010.1 |
| 20260506104556 | 57 | 191 | 0.0 | 4.0 | 0.00 | 0.00 | 0.00 | 84 | 1010.2 |
| 20260506103057 | 57 | 159 | 0.0 | 5.0 | 0.00 | 0.00 | 0.00 | 84 | 1010.1 |
| 20260506101552 | 57 | 182 | 2.0 | 6.0 | 0.00 | 0.00 | 0.00 | 84 | 1010.0 |
| 20260506100051 | 56 | 197 | 0.0 | 5.0 | 0.00 | 0.00 | 0.00 | 85 | 1009.9 |
| 20260506094546 | 57 | 163 | 0.0 | 6.0 | 0.00 | 0.00 | 0.00 | 84 | 1009.9 |
| 20260506093045 | 56 | 198 | 0.0 | 5.0 | 0.00 | 0.00 | 0.00 | 85 | 1009.8 |
| 20260506091543 | 56 | 226 | 1.0 | 5.0 | 0.00 | 0.00 | 0.00 | 85 | 1010.0 |
| 20260506090042 | 56 | 204 | 2.0 | 7.0 | 0.00 | 0.00 | 0.00 | 85 | 1010.1 |
| 20260506084543 | 56 | 116 | 2.0 | 8.0 | 0.00 | 0.00 | 0.00 | 85 | 1010.1 |
| 20260506083040 | 55 | 155 | 2.0 | 6.0 | 0.00 | 0.00 | 0.00 | 85 | 1010.2 |
| 20260506081539 | 55 | 214 | 1.0 | 6.0 | 0.00 | 0.00 | 0.00 | 85 | 1010.2 |
| 20260506073038 | 56 | 162 | 1.0 | 6.0 | 0.00 | 0.00 | 0.00 | 84 | 1010.3 |
| 20260506071537 | 55 | 155 | 1.0 | 6.0 | 0.00 | 0.00 | 0.00 | 83 | 1010.4 |
| 20260506061530 | 54 | 213 | 0.0 | 3.0 | 0.00 | 0.00 | 0.00 | 83 | 1010.3 |
| 20260506044519 | 56 | 235 | 0.0 | 5.0 | 0.00 | 0.00 | 0.00 | 80 | 1010.8 |
| 20260506043015 | 56 | 138 | 0.0 | 3.0 | 0.00 | 0.00 | 0.00 | 80 | 1010.7 |
| 20260506041513 | 57 | 205 | 0.0 | 3.0 | 0.00 | 0.00 | 0.00 | 79 | 1010.7 |
| 20260506040016 | 58 | 115 | 0.0 | 3.0 | 0.00 | 0.00 | 0.00 | 78 | 1010.6 |
| 20260506034510 | 59 | 136 | 0.0 | 4.0 | 0.00 | 0.00 | 0.00 | 76 | 1010.7 |
| 20260506033008 | 60 | 179 | 0.0 | 3.0 | 0.00 | 0.00 | 0.00 | 74 | 1010.6 |
| 20260506031508 | 63 | 150 | 1.0 | 8.0 | 0.00 | 0.00 | 0.00 | 71 | 1010.5 |
| 20260506030007 | 65 | 206 | 3.0 | 12.0 | 0.00 | 0.00 | 0.00 | 70 | 1010.5 |
| 20260506024506 | 62 | 230 | 2.0 | 7.0 | 0.00 | 0.00 | 0.00 | 73 | 1010.4 |
| 20260506023005 | 61 | 181 | 0.0 | 4.0 | 0.00 | 0.00 | 0.00 | 73 | 1010.5 |
| 20260506021511 | 60 | 231 | 0.0 | 2.0 | 0.00 | 0.00 | 0.00 | 74 | 1010.5 |
| 20260506020004 | 60 | 142 | 1.0 | 6.0 | 0.00 | 0.00 | 0.00 | 74 | 1010.4 |
| 20260506014504 | 59 | 193 | 0.0 | 4.0 | 0.00 | 0.00 | 0.00 | 76 | 1010.5 |
| 20260506013003 | 58 | 273 | 3.0 | 7.0 | 0.00 | 0.00 | 0.00 | 76 | 1010.2 |
| 20260506011502 | 59 | 156 | 3.0 | 8.0 | 0.00 | 0.00 | 0.00 | 76 | 1010.2 |
| 20260506010002 | 59 | 183 | 2.0 | 11.0 | 0.00 | 0.00 | 0.00 | 76 | 1010.1 |
| 20260506004502 | 60 | 179 | 3.0 | 10.0 | 0.00 | 0.00 | 0.00 | 75 | 1009.9 |
| 20260506003001 | 59 | 214 | 3.0 | 10.0 | 0.00 | 0.00 | 0.00 | 76 | 1009.8 |
| 20260506001501 | 59 | 181 | 4.0 | 14.0 | 0.00 | 0.00 | 0.00 | 76 | 1009.6 |
| 20260505234610 | 60 | 114 | 2.0 | 14.0 | 0.00 | 0.00 | 0.00 | 76 | 1009.2 |
| 20260505233059 | 60 | 145 | 5.0 | 14.0 | 0.00 | 0.00 | 0.00 | 76 | 1008.9 |
| 20260505231559 | 60 | 172 | 5.0 | 12.0 | 0.00 | 0.00 | 0.00 | 75 | 1008.5 |
| 20260505224557 | 61 | 234 | 4.0 | 14.0 | 0.00 | 0.00 | 0.00 | 74 | 1008.3 |
| 20260505223056 | 62 | 173 | 4.0 | 14.0 | 0.00 | 0.00 | 0.00 | 73 | 1008.5 |
| 20260505221558 | 62 | 226 | 4.0 | 14.0 | 0.00 | 0.00 | 0.00 | 73 | 1008.1 |
| 20260505220055 | 64 | 213 | 3.0 | 11.0 | 0.00 | 0.00 | 0.00 | 70 | 1008.2 |
| 20260505214622 | 64 | 185 | 4.0 | 12.0 | 0.00 | 0.00 | 0.00 | 70 | 1008.0 |
| 20260505213102 | 65 | 251 | 6.0 | 12.0 | 0.00 | 0.00 | 0.00 | 69 | 1008.1 |
| 20260505211553 | 64 | 198 | 4.0 | 11.0 | 0.00 | 0.00 | 0.00 | 70 | 1008.0 |
| 20260505210058 | 64 | 214 | 5.0 | 13.0 | 0.00 | 0.00 | 0.00 | 70 | 1007.9 |
| 20260505204557 | 64 | 117 | 4.0 | 12.0 | 0.00 | 0.00 | 0.00 | 70 | 1007.9 |
| 20260505203053 | 63 | 230 | 7.0 | 15.0 | 0.00 | 0.00 | 0.00 | 71 | 1008.0 |
| 20260505201553 | 64 | 121 | 4.0 | 12.0 | 0.00 | 0.00 | 0.00 | 70 | 1008.0 |
| 20260505200100 | 64 | 101 | 4.0 | 12.0 | 0.00 | 0.00 | 0.00 | 70 | 1008.2 |
| 20260505194549 | 64 | 146 | 5.0 | 17.0 | 0.00 | 0.00 | 0.00 | 70 | 1008.3 |
| 20260505193048 | 64 | 212 | 6.0 | 16.0 | 0.00 | 0.00 | 0.00 | 70 | 1008.5 |
| 20260505191541 | 64 | 150 | 7.0 | 15.0 | 0.00 | 0.00 | 0.00 | 69 | 1008.8 |
| 20260505190039 | 64 | 189 | 3.0 | 17.0 | 0.00 | 0.00 | 0.00 | 70 | 1009.1 |
| 20260505184535 | 64 | 212 | 4.0 | 16.0 | 0.00 | 0.00 | 0.00 | 69 | 1009.4 |
| 20260505183036 | 64 | 144 | 3.0 | 15.0 | 0.00 | 0.00 | 0.00 | 70 | 1009.7 |
| 20260505181533 | 66 | 192 | 3.0 | 12.0 | 0.00 | 0.00 | 0.00 | 67 | 1009.7 |
| 20260505180055 | 66 | 203 | 3.0 | 13.0 | 0.00 | 0.00 | 0.00 | 65 | 1009.7 |
| 20260505174549 | 67 | 77 | 2.0 | 11.0 | 0.00 | 0.00 | 0.00 | 65 | 1009.9 |
| 20260505173034 | 66 | 160 | 2.0 | 10.0 | 0.00 | 0.00 | 0.00 | 66 | 1010.1 |
| 20260505171528 | 67 | 181 | 3.0 | 8.0 | 0.00 | 0.00 | 0.00 | 65 | 1010.1 |
| 20260505170029 | 68 | 103 | 1.0 | 7.0 | 0.00 | 0.00 | 0.00 | 64 | 1010.3 |
| 20260505164525 | 68 | 122 | 2.0 | 9.0 | 0.00 | 0.00 | 0.00 | 63 | 1010.5 |
| 20260505163025 | 69 | 173 | 2.0 | 7.0 | 0.00 | 0.00 | 0.00 | 62 | 1010.5 |
| 20260505161523 | 70 | 179 | 4.0 | 9.0 | 0.00 | 0.00 | 0.00 | 60 | 1010.8 |